CEB495 RPLL-RCTP
Flight info
| Callsign | CEB495 |
|---|---|
| Flight time | 1h 37m |
| Altitude | 38000 |
| Route | ALPAS4V ALPAS M646 SANRO/N0451F370 M646 POTIB Q14 TNN TNN1A |
| Aircraft | B737/M-SDE2E3FGHIRWXY/LB1 |
Departure
| Time | 2026-05-04 04:39 |
|---|---|
| Airport | Ninoy Aquino International Airport (RPLL) |
Arrival
| Time | 2026-05-04 06:16 |
|---|---|
| Airport | Taiwan Taoyuan International Airport (RCTP) |
| Time | Latitude | Longitude | Altitude | Speed | Heading |
|---|---|---|---|---|---|
| 2026-05-04 04:31 | 14.51702 | 121.01659 | 83 ft | 0 kts | 225° |
| 2026-05-04 04:31 | 14.51707 | 121.01664 | 83 ft | 2 kts | 225° |
| 2026-05-04 04:31 | 14.51717 | 121.01675 | 83 ft | 2 kts | 224° |
| 2026-05-04 04:31 | 14.51724 | 121.01682 | 83 ft | 2 kts | 225° |
| 2026-05-04 04:32 | 14.51736 | 121.01691 | 83 ft | 2 kts | 201° |
| 2026-05-04 04:32 | 14.51751 | 121.01695 | 83 ft | 2 kts | 184° |
| 2026-05-04 04:32 | 14.51766 | 121.01695 | 83 ft | 2 kts | 165° |
| 2026-05-04 04:32 | 14.51780 | 121.01688 | 83 ft | 2 kts | 146° |
| 2026-05-04 04:33 | 14.51787 | 121.01683 | 82 ft | 1 kts | 136° |
| 2026-05-04 04:33 | 14.51791 | 121.01678 | 83 ft | 0 kts | 134° |
| 2026-05-04 04:35 | 14.51781 | 121.01689 | 82 ft | 5 kts | 136° |
| 2026-05-04 04:35 | 14.51730 | 121.01740 | 82 ft | 14 kts | 134° |
| 2026-05-04 04:35 | 14.51637 | 121.01780 | 82 ft | 16 kts | 201° |
| 2026-05-04 04:35 | 14.51547 | 121.01698 | 82 ft | 18 kts | 225° |
| 2026-05-04 04:36 | 14.51450 | 121.01607 | 82 ft | 18 kts | 215° |
| 2026-05-04 04:36 | 14.51429 | 121.01512 | 82 ft | 15 kts | 309° |
| 2026-05-04 04:36 | 14.51509 | 121.01431 | 82 ft | 16 kts | 314° |
| 2026-05-04 04:36 | 14.51591 | 121.01346 | 83 ft | 17 kts | 314° |
| 2026-05-04 04:37 | 14.51908 | 121.01017 | 82 ft | 26 kts | 314° |
| 2026-05-04 04:37 | 14.52048 | 121.00872 | 82 ft | 30 kts | 315° |
| 2026-05-04 04:38 | 14.52152 | 121.00758 | 82 ft | 10 kts | 294° |
| 2026-05-04 04:38 | 14.52130 | 121.00698 | 82 ft | 8 kts | 211° |
| 2026-05-04 04:38 | 14.52080 | 121.00704 | 82 ft | 7 kts | 147° |
| 2026-05-04 04:38 | 14.51951 | 121.00832 | 82 ft | 61 kts | 135° |
| 2026-05-04 04:39 | 14.51435 | 121.01363 | 83 ft | 144 kts | 134° |
| 2026-05-04 04:39 | 14.50601 | 121.02235 | 376 ft | 184 kts | 134° |
| 2026-05-04 04:39 | 14.49759 | 121.03159 | 1346 ft | 182 kts | 133° |
| 2026-05-04 04:39 | 14.48855 | 121.04131 | 1991 ft | 194 kts | 135° |
| 2026-05-04 04:40 | 14.47854 | 121.05149 | 2459 ft | 214 kts | 135° |
| 2026-05-04 04:40 | 14.46731 | 121.06162 | 3240 ft | 220 kts | 145° |
| 2026-05-04 04:40 | 14.45351 | 121.06885 | 4125 ft | 224 kts | 162° |
| 2026-05-04 04:40 | 14.43840 | 121.07184 | 4991 ft | 227 kts | 179° |
| 2026-05-04 04:41 | 14.42288 | 121.06999 | 5851 ft | 229 kts | 199° |
| 2026-05-04 04:41 | 14.40888 | 121.06269 | 6705 ft | 230 kts | 218° |
| 2026-05-04 04:41 | 14.39682 | 121.05214 | 7548 ft | 231 kts | 227° |
| 2026-05-04 04:41 | 14.38670 | 121.03846 | 7968 ft | 252 kts | 245° |
| 2026-05-04 04:42 | 14.38131 | 121.02068 | 8333 ft | 273 kts | 265° |
| 2026-05-04 04:42 | 14.38230 | 121.00085 | 8887 ft | 286 kts | 285° |
| 2026-05-04 04:42 | 14.39108 | 120.98245 | 9375 ft | 290 kts | 308° |
| 2026-05-04 04:42 | 14.40417 | 120.96738 | 10379 ft | 289 kts | 315° |
| 2026-05-04 04:43 | 14.41906 | 120.95333 | 11277 ft | 291 kts | 319° |
| 2026-05-04 04:43 | 14.43462 | 120.93994 | 12112 ft | 295 kts | 320° |
| 2026-05-04 04:43 | 14.45031 | 120.92677 | 12915 ft | 298 kts | 320° |
| 2026-05-04 04:43 | 14.46649 | 120.91319 | 13712 ft | 302 kts | 320° |
| 2026-05-04 04:44 | 14.48264 | 120.89957 | 14487 ft | 305 kts | 320° |
| 2026-05-04 04:44 | 14.49918 | 120.88560 | 15253 ft | 308 kts | 320° |
| 2026-05-04 04:44 | 14.51578 | 120.87157 | 15987 ft | 312 kts | 321° |
| 2026-05-04 04:44 | 14.53248 | 120.85744 | 16708 ft | 316 kts | 321° |
| 2026-05-04 04:45 | 14.54999 | 120.84343 | 17405 ft | 319 kts | 326° |
| 2026-05-04 04:45 | 14.56927 | 120.83223 | 18089 ft | 323 kts | 335° |
| 2026-05-04 04:45 | 14.59042 | 120.82423 | 18763 ft | 326 kts | 345° |
| 2026-05-04 04:47 | 14.72775 | 120.83923 | 22485 ft | 346 kts | 13° |
| 2026-05-04 04:47 | 14.75121 | 120.84501 | 23047 ft | 349 kts | 13° |
| 2026-05-04 04:47 | 14.77478 | 120.85078 | 23595 ft | 352 kts | 13° |
| 2026-05-04 04:47 | 14.79852 | 120.85659 | 24143 ft | 355 kts | 13° |
| 2026-05-04 04:48 | 14.82263 | 120.86247 | 24657 ft | 358 kts | 13° |
| 2026-05-04 04:49 | 14.92049 | 120.88640 | 26751 ft | 365 kts | 14° |
| 2026-05-04 04:49 | 14.94507 | 120.89242 | 27336 ft | 364 kts | 14° |
| 2026-05-04 04:49 | 14.96984 | 120.89803 | 27906 ft | 363 kts | 10° |
| 2026-05-04 04:49 | 14.99488 | 120.90037 | 28432 ft | 364 kts | 3° |
| 2026-05-04 04:50 | 15.02012 | 120.89909 | 28907 ft | 366 kts | 355° |
| 2026-05-04 04:50 | 15.04517 | 120.89416 | 29342 ft | 370 kts | 348° |
| 2026-05-04 04:50 | 15.06948 | 120.88621 | 29789 ft | 372 kts | 344° |
| 2026-05-04 04:50 | 15.09397 | 120.87728 | 30231 ft | 372 kts | 343° |
| 2026-05-04 04:51 | 15.11820 | 120.86824 | 30657 ft | 372 kts | 343° |
| 2026-05-04 04:51 | 15.14241 | 120.85920 | 31073 ft | 372 kts | 343° |
| 2026-05-04 04:51 | 15.16672 | 120.85015 | 31477 ft | 372 kts | 343° |
| 2026-05-04 04:51 | 15.19088 | 120.84117 | 31865 ft | 372 kts | 343° |
| 2026-05-04 04:52 | 15.21522 | 120.83212 | 32245 ft | 372 kts | 343° |
| 2026-05-04 04:52 | 15.23931 | 120.82317 | 32606 ft | 372 kts | 343° |
| 2026-05-04 04:52 | 15.26365 | 120.81412 | 32962 ft | 372 kts | 343° |
| 2026-05-04 04:52 | 15.28796 | 120.80508 | 33306 ft | 372 kts | 343° |
| 2026-05-04 04:53 | 15.31235 | 120.79600 | 33644 ft | 372 kts | 343° |
| 2026-05-04 04:53 | 15.33661 | 120.78698 | 33963 ft | 372 kts | 343° |
| 2026-05-04 04:53 | 15.36101 | 120.77789 | 34292 ft | 372 kts | 343° |
| 2026-05-04 04:53 | 15.38490 | 120.76900 | 34619 ft | 371 kts | 343° |
| 2026-05-04 04:54 | 15.40924 | 120.75993 | 34934 ft | 370 kts | 343° |
| 2026-05-04 04:54 | 15.43337 | 120.75095 | 35241 ft | 370 kts | 343° |
| 2026-05-04 04:54 | 15.45744 | 120.74197 | 35536 ft | 369 kts | 343° |
| 2026-05-04 04:54 | 15.48142 | 120.73305 | 35818 ft | 368 kts | 344° |
| 2026-05-04 04:55 | 15.50572 | 120.72517 | 36087 ft | 366 kts | 347° |
| 2026-05-04 04:55 | 15.53012 | 120.71799 | 36343 ft | 366 kts | 347° |
| 2026-05-04 04:55 | 15.55465 | 120.71085 | 36584 ft | 366 kts | 347° |
| 2026-05-04 04:55 | 15.57890 | 120.70372 | 36806 ft | 366 kts | 347° |
| 2026-05-04 04:56 | 15.60324 | 120.69650 | 37027 ft | 366 kts | 347° |
| 2026-05-04 04:56 | 15.62775 | 120.68922 | 37242 ft | 365 kts | 347° |
| 2026-05-04 04:56 | 15.65188 | 120.68205 | 37442 ft | 365 kts | 347° |
| 2026-05-04 04:56 | 15.67632 | 120.67479 | 37635 ft | 365 kts | 347° |
| 2026-05-04 04:57 | 15.70045 | 120.66761 | 37823 ft | 365 kts | 347° |
| 2026-05-04 04:57 | 15.72479 | 120.66032 | 37944 ft | 367 kts | 347° |
| 2026-05-04 04:57 | 15.77443 | 120.64543 | 37972 ft | 377 kts | 347° |
| 2026-05-04 04:58 | 15.82596 | 120.63237 | 37978 ft | 389 kts | 354° |
| 2026-05-04 04:58 | 15.88044 | 120.62417 | 37972 ft | 404 kts | 355° |
| 2026-05-04 04:59 | 15.93695 | 120.61595 | 37971 ft | 419 kts | 355° |
| 2026-05-04 04:59 | 15.99532 | 120.60747 | 37971 ft | 434 kts | 355° |
| 2026-05-04 05:00 | 16.05624 | 120.59860 | 37970 ft | 449 kts | 354° |
| 2026-05-04 05:00 | 16.11867 | 120.58951 | 37970 ft | 465 kts | 354° |
| 2026-05-04 05:01 | 16.15112 | 120.58478 | 37969 ft | 472 kts | 354° |
| 2026-05-04 05:01 | 16.21642 | 120.57525 | 37968 ft | 481 kts | 354° |
| 2026-05-04 05:02 | 16.28260 | 120.56555 | 37966 ft | 479 kts | 354° |
| 2026-05-04 05:02 | 16.34775 | 120.55600 | 37967 ft | 477 kts | 354° |
| 2026-05-04 05:03 | 16.41322 | 120.54640 | 37968 ft | 477 kts | 354° |
| 2026-05-04 05:04 | 16.54446 | 120.52713 | 37968 ft | 478 kts | 354° |
| 2026-05-04 05:04 | 16.61006 | 120.51749 | 37968 ft | 478 kts | 354° |
| 2026-05-04 05:06 | 16.87299 | 120.47878 | 37915 ft | 477 kts | 354° |
| 2026-05-04 05:07 | 16.93840 | 120.46914 | 37915 ft | 477 kts | 354° |
| 2026-05-04 05:07 | 17.00431 | 120.45941 | 37915 ft | 478 kts | 354° |
| 2026-05-04 05:09 | 17.30226 | 120.42536 | 37918 ft | 476 kts | 8° |
| 2026-05-04 05:10 | 17.36794 | 120.43297 | 37915 ft | 475 kts | 10° |
| 2026-05-04 05:10 | 17.43315 | 120.44085 | 37915 ft | 475 kts | 9° |
| 2026-05-04 05:11 | 17.49831 | 120.44852 | 37915 ft | 475 kts | 9° |
| 2026-05-04 05:11 | 17.56377 | 120.45624 | 37915 ft | 475 kts | 9° |
| 2026-05-04 05:12 | 17.62930 | 120.46397 | 37915 ft | 475 kts | 9° |
| 2026-05-04 05:12 | 17.69461 | 120.47169 | 37915 ft | 475 kts | 9° |
| 2026-05-04 05:13 | 17.75990 | 120.47942 | 37915 ft | 475 kts | 9° |
| 2026-05-04 05:13 | 17.82561 | 120.48718 | 37915 ft | 475 kts | 9° |
| 2026-05-04 05:14 | 17.89077 | 120.49490 | 37916 ft | 475 kts | 9° |
| 2026-05-04 05:14 | 17.95639 | 120.50267 | 37916 ft | 476 kts | 9° |
| 2026-05-04 05:15 | 18.02153 | 120.51039 | 37916 ft | 474 kts | 9° |
| 2026-05-04 05:15 | 18.08668 | 120.51812 | 37916 ft | 474 kts | 9° |
| 2026-05-04 05:16 | 18.15249 | 120.52593 | 37914 ft | 475 kts | 9° |
| 2026-05-04 05:16 | 18.21776 | 120.53271 | 37914 ft | 476 kts | 7° |
| 2026-05-04 05:17 | 18.28365 | 120.53749 | 37914 ft | 476 kts | 7° |
| 2026-05-04 05:17 | 18.34931 | 120.54268 | 37914 ft | 476 kts | 7° |
| 2026-05-04 05:18 | 18.41495 | 120.54794 | 37914 ft | 475 kts | 7° |
| 2026-05-04 05:18 | 18.48089 | 120.55323 | 37915 ft | 476 kts | 7° |
| 2026-05-04 05:19 | 18.54631 | 120.55848 | 37915 ft | 476 kts | 7° |
| 2026-05-04 05:19 | 18.61242 | 120.56378 | 37915 ft | 476 kts | 7° |
| 2026-05-04 05:20 | 18.67786 | 120.56904 | 37915 ft | 476 kts | 7° |
| 2026-05-04 05:20 | 18.74374 | 120.57434 | 37915 ft | 476 kts | 7° |
| 2026-05-04 05:21 | 18.80941 | 120.57963 | 37915 ft | 476 kts | 7° |
| 2026-05-04 05:21 | 18.87532 | 120.58492 | 37915 ft | 475 kts | 7° |
| 2026-05-04 05:22 | 18.94081 | 120.59020 | 37915 ft | 478 kts | 7° |
| 2026-05-04 05:22 | 19.00762 | 120.59559 | 37916 ft | 484 kts | 7° |
| 2026-05-04 05:23 | 19.07480 | 120.60101 | 37916 ft | 488 kts | 7° |
| 2026-05-04 05:23 | 19.14202 | 120.60643 | 37886 ft | 486 kts | 7° |
| 2026-05-04 05:24 | 19.20899 | 120.61185 | 37885 ft | 485 kts | 7° |
| 2026-05-04 05:24 | 19.27613 | 120.61729 | 37885 ft | 486 kts | 7° |
| 2026-05-04 05:25 | 19.34338 | 120.62273 | 37886 ft | 486 kts | 7° |
| 2026-05-04 05:25 | 19.41019 | 120.62814 | 37886 ft | 486 kts | 7° |
| 2026-05-04 05:26 | 19.47740 | 120.63360 | 37886 ft | 486 kts | 7° |
| 2026-05-04 05:26 | 19.54442 | 120.63904 | 37886 ft | 486 kts | 7° |
| 2026-05-04 05:28 | 19.81281 | 120.66087 | 37888 ft | 486 kts | 7° |
| 2026-05-04 05:29 | 19.87999 | 120.66634 | 37888 ft | 486 kts | 7° |
| 2026-05-04 05:29 | 19.94725 | 120.67182 | 37888 ft | 486 kts | 7° |
| 2026-05-04 05:31 | 20.21580 | 120.69377 | 37885 ft | 486 kts | 7° |
| 2026-05-04 05:32 | 20.28272 | 120.69925 | 37885 ft | 486 kts | 7° |
| 2026-05-04 05:33 | 20.38356 | 120.70752 | 37908 ft | 486 kts | 7° |
| 2026-05-04 05:33 | 20.45095 | 120.71305 | 37942 ft | 486 kts | 7° |
| 2026-05-04 05:34 | 20.51776 | 120.71854 | 37966 ft | 486 kts | 7° |
| 2026-05-04 05:34 | 20.58522 | 120.72408 | 37967 ft | 486 kts | 7° |
| 2026-05-04 05:35 | 20.65253 | 120.72962 | 37967 ft | 486 kts | 7° |
| 2026-05-04 05:35 | 20.71969 | 120.73515 | 37968 ft | 486 kts | 7° |
| 2026-05-04 05:36 | 20.78684 | 120.74069 | 37968 ft | 485 kts | 7° |
| 2026-05-04 05:36 | 20.85404 | 120.74624 | 37969 ft | 485 kts | 7° |
| 2026-05-04 05:37 | 20.92131 | 120.75179 | 37969 ft | 486 kts | 7° |
| 2026-05-04 05:37 | 20.98860 | 120.75474 | 37973 ft | 488 kts | 358° |
| 2026-05-04 05:38 | 21.08803 | 120.73604 | 37969 ft | 485 kts | 347° |
| 2026-05-04 05:38 | 21.15347 | 120.71926 | 37965 ft | 481 kts | 347° |
| 2026-05-04 05:39 | 21.25101 | 120.69433 | 37966 ft | 482 kts | 347° |
| 2026-05-04 05:40 | 21.34834 | 120.66946 | 37966 ft | 482 kts | 347° |
| 2026-05-04 05:40 | 21.41363 | 120.65276 | 37966 ft | 483 kts | 347° |
| 2026-05-04 05:41 | 21.47892 | 120.63603 | 37966 ft | 482 kts | 347° |
| 2026-05-04 05:41 | 21.54360 | 120.61945 | 37967 ft | 483 kts | 347° |
| 2026-05-04 05:42 | 21.60858 | 120.60273 | 37967 ft | 482 kts | 347° |
| 2026-05-04 05:42 | 21.67399 | 120.58588 | 37967 ft | 483 kts | 347° |
| 2026-05-04 05:43 | 21.73866 | 120.56923 | 37967 ft | 482 kts | 347° |
| 2026-05-04 05:45 | 21.99903 | 120.50211 | 37968 ft | 482 kts | 347° |
| 2026-05-04 05:47 | 22.25896 | 120.43489 | 37966 ft | 482 kts | 347° |
| 2026-05-04 05:47 | 22.32435 | 120.41795 | 37966 ft | 482 kts | 347° |
| 2026-05-04 05:48 | 22.38909 | 120.40115 | 37967 ft | 483 kts | 347° |
| 2026-05-04 05:48 | 22.45416 | 120.38425 | 37967 ft | 483 kts | 347° |
| 2026-05-04 05:49 | 22.51927 | 120.36732 | 37967 ft | 482 kts | 347° |
| 2026-05-04 05:49 | 22.58440 | 120.35037 | 37968 ft | 482 kts | 347° |
| 2026-05-04 05:51 | 22.84447 | 120.28250 | 37985 ft | 483 kts | 347° |
| 2026-05-04 05:52 | 22.90987 | 120.26533 | 37993 ft | 483 kts | 347° |
| 2026-05-04 05:52 | 22.97525 | 120.24822 | 37994 ft | 485 kts | 346° |
| 2026-05-04 05:54 | 23.24131 | 120.21852 | 37992 ft | 487 kts | 7° |
| 2026-05-04 05:55 | 23.30870 | 120.22683 | 37993 ft | 488 kts | 6° |
| 2026-05-04 05:55 | 23.37582 | 120.23485 | 37993 ft | 488 kts | 6° |
| 2026-05-04 05:56 | 23.44314 | 120.24287 | 37992 ft | 488 kts | 6° |
| 2026-05-04 05:56 | 23.51040 | 120.25092 | 37891 ft | 491 kts | 6° |
| 2026-05-04 05:57 | 23.54421 | 120.25496 | 37270 ft | 497 kts | 6° |
| 2026-05-04 05:57 | 23.57849 | 120.25906 | 36669 ft | 494 kts | 6° |
| 2026-05-04 05:57 | 23.61233 | 120.26311 | 36067 ft | 489 kts | 6° |
| 2026-05-04 05:57 | 23.64597 | 120.26714 | 35464 ft | 485 kts | 6° |
| 2026-05-04 05:58 | 23.67941 | 120.27118 | 34863 ft | 483 kts | 7° |
| 2026-05-04 05:58 | 23.71248 | 120.27786 | 34272 ft | 485 kts | 14° |
| 2026-05-04 05:58 | 23.74480 | 120.28763 | 33684 ft | 489 kts | 18° |
| 2026-05-04 05:58 | 23.77737 | 120.29894 | 33085 ft | 491 kts | 19° |
| 2026-05-04 05:59 | 23.80929 | 120.31025 | 32496 ft | 491 kts | 18° |
| 2026-05-04 05:59 | 23.84184 | 120.32162 | 31865 ft | 493 kts | 18° |
| 2026-05-04 05:59 | 23.87440 | 120.33291 | 31140 ft | 494 kts | 18° |
| 2026-05-04 05:59 | 23.90708 | 120.34421 | 30368 ft | 495 kts | 18° |
| 2026-05-04 06:00 | 23.93994 | 120.35558 | 29591 ft | 495 kts | 18° |
| 2026-05-04 06:00 | 23.97265 | 120.36692 | 28819 ft | 496 kts | 18° |
| 2026-05-04 06:00 | 24.00533 | 120.37825 | 28052 ft | 498 kts | 18° |
| 2026-05-04 06:00 | 24.03824 | 120.38967 | 27315 ft | 505 kts | 18° |
| 2026-05-04 06:01 | 24.07164 | 120.40126 | 26564 ft | 504 kts | 18° |
| 2026-05-04 06:01 | 24.10472 | 120.41274 | 25807 ft | 495 kts | 18° |
| 2026-05-04 06:03 | 24.32283 | 120.48864 | 20524 ft | 454 kts | 19° |
| 2026-05-04 06:03 | 24.35265 | 120.49905 | 19840 ft | 447 kts | 19° |
| 2026-05-04 06:05 | 24.55323 | 120.56913 | 15288 ft | 417 kts | 19° |
| 2026-05-04 06:05 | 24.60779 | 120.58823 | 14174 ft | 411 kts | 19° |
| 2026-05-04 06:05 | 24.63463 | 120.59776 | 13626 ft | 408 kts | 20° |
| 2026-05-04 06:06 | 24.66035 | 120.61008 | 13078 ft | 403 kts | 29° |
| 2026-05-04 06:06 | 24.68434 | 120.62635 | 12523 ft | 398 kts | 36° |
| 2026-05-04 06:06 | 24.70592 | 120.64415 | 11987 ft | 385 kts | 39° |
| 2026-05-04 06:06 | 24.72617 | 120.66272 | 11460 ft | 374 kts | 42° |
| 2026-05-04 06:07 | 24.74538 | 120.68134 | 10935 ft | 365 kts | 43° |
| 2026-05-04 06:07 | 24.76401 | 120.69970 | 10410 ft | 357 kts | 43° |
| 2026-05-04 06:07 | 24.78231 | 120.71776 | 9886 ft | 353 kts | 43° |
| 2026-05-04 06:07 | 24.80042 | 120.73560 | 9360 ft | 346 kts | 43° |
| 2026-05-04 06:08 | 24.81808 | 120.75298 | 8921 ft | 337 kts | 43° |
| 2026-05-04 06:08 | 24.83528 | 120.76990 | 8521 ft | 327 kts | 43° |
| 2026-05-04 06:08 | 24.85193 | 120.78630 | 8121 ft | 319 kts | 43° |
| 2026-05-04 06:08 | 24.86823 | 120.80236 | 7722 ft | 312 kts | 43° |
| 2026-05-04 06:09 | 24.88320 | 120.81898 | 7325 ft | 305 kts | 51° |
| 2026-05-04 06:09 | 24.89550 | 120.83781 | 6924 ft | 298 kts | 60° |
| 2026-05-04 06:11 | 24.91266 | 120.98259 | 4844 ft | 253 kts | 91° |
| 2026-05-04 06:11 | 24.91169 | 121.00173 | 4592 ft | 248 kts | 90° |
| 2026-05-04 06:13 | 24.96856 | 121.10653 | 2927 ft | 211 kts | 49° |
| 2026-05-04 06:14 | 25.01963 | 121.17122 | 1388 ft | 154 kts | 48° |
| 2026-05-04 06:14 | 25.02617 | 121.17952 | 1191 ft | 134 kts | 48° |
| 2026-05-04 06:15 | 25.03217 | 121.18713 | 1019 ft | 130 kts | 48° |
| 2026-05-04 06:15 | 25.03808 | 121.19462 | 844 ft | 129 kts | 48° |
| 2026-05-04 06:15 | 25.04398 | 121.20209 | 672 ft | 129 kts | 48° |
| 2026-05-04 06:15 | 25.04986 | 121.20959 | 499 ft | 128 kts | 48° |
| 2026-05-04 06:16 | 25.05577 | 121.21703 | 345 ft | 128 kts | 48° |
| 2026-05-04 06:16 | 25.06162 | 121.22450 | 157 ft | 127 kts | 49° |
| 2026-05-04 06:16 | 25.06682 | 121.23112 | 114 ft | 83 kts | 48° |
| 2026-05-04 06:16 | 25.06923 | 121.23416 | 114 ft | 29 kts | 49° |
| 2026-05-04 06:17 | 25.07052 | 121.23579 | 114 ft | 27 kts | 46° |
| 2026-05-04 06:17 | 25.07194 | 121.23698 | 113 ft | 25 kts | 28° |
| 2026-05-04 06:17 | 25.07358 | 121.23762 | 114 ft | 24 kts | 18° |
| 2026-05-04 06:17 | 25.07512 | 121.23774 | 114 ft | 20 kts | 322° |
| 2026-05-04 06:18 | 25.07613 | 121.23689 | 114 ft | 15 kts | 342° |
| 2026-05-04 06:18 | 25.07693 | 121.23633 | 114 ft | 12 kts | 319° |
| 2026-05-04 06:18 | 25.07734 | 121.23594 | 114 ft | 0 kts | 318° |